Time;durP1;ratioP1;P1;durP2;ratioP2;P2;SDS_P1;SDS_P2;PMS_P1;PMS_P2;Temp;Humidity;BMP_temperature;BMP_pressure;BME280_temperature;BME280_humidity;BME280_pressure;Samples;Min_cycle;Max_cycle;Signal;HPM_P1;HPM_P2
2024/03/11 00:00:17;;;;;;;6.40;3.67;;;21.70;37.50;;;;;;5092083;28;20588;-64
2024/03/11 00:02:44;;;;;;;5.88;4.43;;;21.70;37.50;;;;;;5091960;28;20660;-63
2024/03/11 00:05:12;;;;;;;5.70;3.85;;;21.80;37.60;;;;;;5092157;28;20279;-64
2024/03/11 00:07:40;;;;;;;5.00;3.65;;;21.80;37.50;;;;;;5091978;28;20285;-64
2024/03/11 00:10:11;;;;;;;5.35;3.72;;;21.80;37.60;;;;;;5092291;28;20214;-64
2024/03/11 00:12:39;;;;;;;5.93;3.90;;;21.80;37.50;;;;;;5091255;28;20221;-64
2024/03/11 00:15:07;;;;;;;5.47;3.70;;;21.70;37.40;;;;;;5092191;28;20217;-64
2024/03/11 00:17:35;;;;;;;5.60;3.63;;;21.80;37.50;;;;;;5092101;28;20194;-64
2024/03/11 00:20:02;;;;;;;4.63;3.53;;;21.80;37.50;;;;;;5091858;28;20214;-64
2024/03/11 00:22:29;;;;;;;4.63;3.50;;;21.80;37.50;;;;;;5092143;28;20281;-63
2024/03/11 00:24:56;;;;;;;4.43;3.25;;;21.80;37.50;;;;;;5092186;28;20210;-64
2024/03/11 00:27:23;;;;;;;4.43;3.17;;;21.80;37.50;;;;;;5091176;28;20186;-64
2024/03/11 00:29:50;;;;;;;3.85;2.78;;;21.80;37.50;;;;;;5092432;28;20214;-64
2024/03/11 00:32:19;;;;;;;4.20;3.17;;;21.80;37.40;;;;;;5091499;28;20316;-64
2024/03/11 00:34:47;;;;;;;4.50;3.03;;;21.80;37.50;;;;;;5092205;28;20214;-64
2024/03/11 00:37:15;;;;;;;5.90;2.95;;;21.80;37.40;;;;;;5092005;28;20187;-64
2024/03/11 00:39:42;;;;;;;4.68;3.22;;;21.80;37.40;;;;;;5091661;28;20560;-64
2024/03/11 00:42:09;;;;;;;5.05;3.03;;;21.80;37.40;;;;;;5090997;28;20193;-64
2024/03/11 00:44:35;;;;;;;4.38;3.15;;;21.80;37.40;;;;;;5094907;28;20668;-64
2024/03/11 00:47:05;;;;;;;5.72;2.85;;;21.80;37.40;;;;;;5095849;28;20289;-64
2024/03/11 00:49:32;;;;;;;5.13;3.25;;;21.80;37.40;;;;;;5095406;28;20213;-64
2024/03/11 00:52:01;;;;;;;3.92;3.00;;;21.80;37.40;;;;;;5095664;28;20187;-64
2024/03/11 00:54:28;;;;;;;3.47;2.67;;;21.80;37.40;;;;;;5095929;28;20601;-64
2024/03/11 00:56:55;;;;;;;5.47;3.13;;;21.80;37.30;;;;;;5094445;28;20281;-64
2024/03/11 00:59:22;;;;;;;4.07;2.85;;;21.80;37.30;;;;;;5095534;28;20193;-64
2024/03/11 01:01:49;;;;;;;4.13;2.90;;;21.80;37.30;;;;;;5095416;28;20182;-64
2024/03/11 01:04:16;;;;;;;4.18;2.70;;;21.80;37.30;;;;;;5094900;28;20604;-64
2024/03/11 01:06:43;;;;;;;2.80;2.60;;;21.80;37.30;;;;;;5095409;28;20192;-64
2024/03/11 01:09:11;;;;;;;4.43;2.60;;;21.80;37.30;;;;;;5095172;28;20182;-64
2024/03/11 01:11:38;;;;;;;3.08;2.63;;;21.80;37.20;;;;;;5094408;28;20182;-64
2024/03/11 01:14:09;;;;;;;3.25;2.45;;;21.80;37.30;;;;;;5094786;28;20593;-64
2024/03/11 01:16:37;;;;;;;3.22;2.38;;;21.80;37.30;;;;;;5095192;28;20190;-64
2024/03/11 01:19:07;;;;;;;3.58;2.65;;;21.80;37.30;;;;;;5094887;28;20225;-64
2024/03/11 01:21:35;;;;;;;3.08;2.38;;;21.80;37.20;;;;;;5095132;28;20213;-64
2024/03/11 01:24:03;;;;;;;5.03;2.97;;;21.80;37.20;;;;;;5094872;28;20728;-64
2024/03/11 01:26:32;;;;;;;3.70;2.58;;;21.80;37.30;;;;;;5094342;28;20236;-64
2024/03/11 01:28:59;;;;;;;2.85;2.55;;;21.80;37.20;;;;;;5094709;28;20569;-64
2024/03/11 01:31:28;;;;;;;3.17;2.45;;;21.80;37.20;;;;;;5095026;28;20233;-64
2024/03/11 01:33:55;;;;;;;2.70;2.38;;;21.80;37.20;;;;;;5094739;28;20229;-64
2024/03/11 01:36:22;;;;;;;3.92;2.42;;;21.80;37.90;;;;;;5095072;28;20304;-64
2024/03/11 01:38:49;;;;;;;2.78;2.42;;;21.70;37.10;;;;;;5094751;28;20277;-64
2024/03/11 01:41:18;;;;;;;3.35;2.58;;;21.80;37.20;;;;;;5094012;28;20210;-64
2024/03/11 01:43:47;;;;;;;3.03;2.40;;;21.70;37.10;;;;;;5094336;28;20281;-64
2024/03/11 01:46:14;;;;;;;3.15;2.53;;;21.80;37.10;;;;;;5094649;28;20218;-64
2024/03/11 01:48:41;;;;;;;3.20;2.35;;;21.80;37.10;;;;;;5094383;28;20273;-64
2024/03/11 01:51:08;;;;;;;2.72;2.42;;;21.80;37.20;;;;;;5094769;28;20252;-64
2024/03/11 01:53:35;;;;;;;2.97;2.63;;;21.80;37.10;;;;;;5094684;28;20221;-64
2024/03/11 01:56:02;;;;;;;3.20;2.58;;;21.80;37.10;;;;;;5092498;28;20700;-64
2024/03/11 01:58:32;;;;;;;2.95;2.15;;;21.80;37.10;;;;;;5094387;28;20186;-64
2024/03/11 02:01:00;;;;;;;3.30;2.45;;;21.70;37.00;;;;;;5094464;28;20210;-64
2024/03/11 02:03:27;;;;;;;3.13;2.40;;;21.80;37.10;;;;;;5093767;28;20648;-64
2024/03/11 02:05:55;;;;;;;2.40;1.90;;;21.80;37.10;;;;;;5093994;28;20217;-64
2024/03/11 02:08:23;;;;;;;3.28;2.50;;;21.70;37.00;;;;;;5094268;28;20715;-64
2024/03/11 02:10:51;;;;;;;2.60;2.40;;;21.80;37.10;;;;;;5093327;28;20305;-64
2024/03/11 02:13:20;;;;;;;3.55;2.58;;;21.70;36.90;;;;;;5093998;28;20214;-64
2024/03/11 02:15:47;;;;;;;2.65;2.20;;;21.80;37.00;;;;;;5093851;28;20217;-64
2024/03/11 02:18:18;;;;;;;3.35;2.45;;;21.80;37.00;;;;;;5093830;28;20194;-64
2024/03/11 02:20:45;;;;;;;2.90;2.13;;;21.70;36.90;;;;;;5093787;28;20247;-64
2024/03/11 02:23:13;;;;;;;3.08;2.15;;;21.70;36.90;;;;;;5093607;28;20186;-64
2024/03/11 02:25:40;;;;;;;2.50;2.20;;;21.70;36.90;;;;;;5093139;28;20229;-64
2024/03/11 02:28:08;;;;;;;2.78;2.20;;;21.70;37.00;;;;;;5093524;28;20676;-64
2024/03/11 02:30:35;;;;;;;4.97;2.58;;;21.70;36.90;;;;;;5093901;28;20222;-64
2024/03/11 02:33:01;;;;;;;2.40;2.10;;;21.70;36.90;;;;;;5093109;28;20226;-64
2024/03/11 02:35:28;;;;;;;2.53;2.28;;;21.70;36.90;;;;;;5093765;28;20216;-64
2024/03/11 02:37:55;;;;;;;3.20;2.20;;;21.70;36.90;;;;;;5093709;28;20224;-64
2024/03/11 02:40:26;;;;;;;2.35;1.92;;;21.70;36.90;;;;;;5092758;28;20304;-64
2024/03/11 02:42:54;;;;;;;2.30;2.10;;;21.70;36.90;;;;;;5093173;28;20572;-64
2024/03/11 02:45:25;;;;;;;3.45;2.10;;;21.80;36.90;;;;;;5093542;28;20210;-64
2024/03/11 02:47:52;;;;;;;2.92;2.20;;;21.80;36.90;;;;;;5093292;28;20190;-64
2024/03/11 02:50:19;;;;;;;2.70;2.15;;;21.70;36.80;;;;;;5093461;28;20638;-64
2024/03/11 02:52:46;;;;;;;2.28;2.08;;;21.80;36.90;;;;;;5093027;28;20663;-64
2024/03/11 02:55:18;;;;;;;2.10;1.80;;;21.80;36.90;;;;;;5092377;28;20261;-64
2024/03/11 02:57:48;;;;;;;2.67;2.03;;;21.80;36.80;;;;;;5093274;28;20265;-64
2024/03/11 03:00:15;;;;;;;2.20;1.92;;;21.80;36.80;;;;;;5093194;28;20213;-64
2024/03/11 03:02:42;;;;;;;3.17;2.00;;;21.80;36.80;;;;;;5092627;28;20707;-64
2024/03/11 03:05:11;;;;;;;3.03;2.20;;;21.80;36.80;;;;;;5093028;28;20214;-64
2024/03/11 03:07:39;;;;;;;2.03;1.88;;;21.80;36.80;;;;;;5092955;28;20192;-64
2024/03/11 03:10:07;;;;;;;2.92;2.00;;;21.80;36.80;;;;;;5091822;28;20692;-64
2024/03/11 03:12:35;;;;;;;3.10;2.25;;;21.80;36.80;;;;;;5093217;28;20281;-64
2024/03/11 03:15:04;;;;;;;2.45;2.17;;;21.80;36.80;;;;;;5092852;28;20229;-64
2024/03/11 03:17:31;;;;;;;2.28;1.98;;;21.70;36.70;;;;;;5092338;28;20221;-64
2024/03/11 03:19:58;;;;;;;3.25;2.00;;;21.80;36.80;;;;;;5092860;28;20612;-64
2024/03/11 03:22:25;;;;;;;3.17;2.10;;;21.80;36.80;;;;;;5092764;28;20194;-64
2024/03/11 03:24:51;;;;;;;3.80;2.20;;;21.80;36.80;;;;;;5091980;28;20229;-64
2024/03/11 03:27:18;;;;;;;2.25;1.90;;;21.80;36.80;;;;;;5092779;28;20186;-64
2024/03/11 03:29:45;;;;;;;2.42;2.15;;;21.70;36.70;;;;;;5092761;28;20253;-64
2024/03/11 03:32:14;;;;;;;2.53;2.00;;;21.70;36.70;;;;;;5092086;28;20304;-64
2024/03/11 03:34:41;;;;;;;2.47;1.90;;;21.70;36.70;;;;;;5092672;28;20274;-64
2024/03/11 03:37:09;;;;;;;2.60;1.95;;;21.70;36.70;;;;;;5091266;28;20205;-64
2024/03/11 03:39:35;;;;;;;2.88;1.70;;;21.70;36.70;;;;;;5091899;28;20198;-64
2024/03/11 03:42:01;;;;;;;2.78;1.80;;;21.70;36.70;;;;;;5092580;28;20190;-64
2024/03/11 03:44:28;;;;;;;2.60;2.08;;;21.70;36.80;;;;;;5092204;28;20558;-64
2024/03/11 03:46:56;;;;;;;2.17;1.70;;;21.70;36.70;;;;;;5092289;28;20269;-64
2024/03/11 03:49:24;;;;;;;2.83;1.75;;;21.70;36.70;;;;;;5092068;28;20189;-64
2024/03/11 03:51:51;;;;;;;2.83;2.05;;;21.70;36.70;;;;;;5091093;28;20198;-64
2024/03/11 03:54:18;;;;;;;2.40;2.00;;;21.70;36.70;;;;;;5091378;28;20218;-64
2024/03/11 03:56:46;;;;;;;1.88;1.65;;;21.70;36.80;;;;;;5092378;28;20209;-64
2024/03/11 03:59:12;;;;;;;3.75;1.90;;;21.70;36.80;;;;;;5092663;28;20194;-63
2024/03/11 04:01:39;;;;;;;2.65;1.60;;;21.70;37.50;;;;;;5092157;28;20218;-64
2024/03/11 04:04:06;;;;;;;2.92;2.03;;;21.70;36.70;;;;;;5091911;28;20288;-64
2024/03/11 04:06:34;;;;;;;2.83;1.90;;;21.70;36.70;;;;;;5092450;28;20213;-64
2024/03/11 04:09:01;;;;;;;3.85;1.95;;;21.70;36.80;;;;;;5091379;28;20189;-64
2024/03/11 04:11:28;;;;;;;3.15;1.95;;;21.70;36.70;;;;;;5092106;28;20742;-64
2024/03/11 04:13:55;;;;;;;2.33;2.13;;;21.70;37.40;;;;;;5092201;28;20228;-64
2024/03/11 04:16:21;;;;;;;2.88;1.58;;;21.70;36.80;;;;;;5092203;28;20209;-63
2024/03/11 04:18:48;;;;;;;2.55;1.70;;;21.70;36.80;;;;;;5094481;28;20499;-63
2024/03/11 04:21:16;;;;;;;2.13;1.70;;;21.70;36.80;;;;;;5096245;28;20585;-63
2024/03/11 04:23:45;;;;;;;2.47;1.52;;;21.70;36.80;;;;;;5095641;28;20186;-64
2024/03/11 04:26:12;;;;;;;2.03;1.65;;;21.70;36.80;;;;;;5096402;28;20217;-64
2024/03/11 04:28:39;;;;;;;1.77;1.50;;;21.70;36.80;;;;;;5095854;28;20250;-64
2024/03/11 04:31:06;;;;;;;2.60;1.60;;;21.70;36.80;;;;;;5095825;28;20224;-63
2024/03/11 04:33:33;;;;;;;2.05;1.60;;;21.70;37.50;;;;;;5095964;28;20277;-64
2024/03/11 04:36:00;;;;;;;3.03;1.60;;;21.70;36.90;;;;;;5096306;28;20264;-63
2024/03/11 04:38:27;;;;;;;2.35;1.60;;;21.70;36.90;;;;;;5095799;28;20269;-64
2024/03/11 04:40:56;;;;;;;3.08;1.85;;;21.70;36.80;;;;;;5095347;28;20665;-64
2024/03/11 04:43:23;;;;;;;2.15;1.50;;;21.70;36.90;;;;;;5095896;28;20212;-64
2024/03/11 04:45:50;;;;;;;1.80;1.33;;;21.70;36.80;;;;;;5095808;28;20325;-63
2024/03/11 04:48:19;;;;;;;2.75;1.60;;;21.70;36.80;;;;;;5095551;28;20193;-64
2024/03/11 04:50:47;;;;;;;2.88;1.73;;;21.70;37.50;;;;;;5095817;28;20218;-64
2024/03/11 04:53:16;;;;;;;2.08;1.30;;;21.70;36.80;;;;;;5095471;28;20190;-64
2024/03/11 04:55:43;;;;;;;2.80;1.70;;;21.80;36.90;;;;;;5094849;28;20612;-64
2024/03/11 04:58:11;;;;;;;3.35;1.90;;;21.70;36.80;;;;;;5095645;28;20562;-64
2024/03/11 05:00:38;;;;;;;2.15;1.50;;;21.70;36.80;;;;;;5095467;28;20224;-64
2024/03/11 05:03:06;;;;;;;2.83;1.85;;;21.80;37.00;;;;;;5095745;28;20213;-64
2024/03/11 05:05:35;;;;;;;2.00;1.58;;;21.80;36.90;;;;;;5095522;28;20214;-64
2024/03/11 05:08:04;;;;;;;2.72;1.90;;;21.80;37.00;;;;;;5094919;28;20680;-64
2024/03/11 05:10:31;;;;;;;2.45;1.40;;;21.80;36.90;;;;;;5094484;28;20218;-64
2024/03/11 05:12:59;;;;;;;2.65;1.45;;;21.80;36.90;;;;;;5095573;28;20196;-64
2024/03/11 05:15:27;;;;;;;2.47;1.67;;;21.80;36.90;;;;;;5094746;28;20241;-64
2024/03/11 05:17:54;;;;;;;2.15;1.55;;;21.80;37.00;;;;;;5094982;28;20245;-64
2024/03/11 05:20:21;;;;;;;1.95;1.50;;;21.80;37.00;;;;;;5094877;28;20214;-64
2024/03/11 05:22:49;;;;;;;3.45;1.55;;;21.80;37.00;;;;;;5094920;28;20186;-64
2024/03/11 05:25:17;;;;;;;4.57;1.52;;;21.80;37.00;;;;;;5094186;28;20699;-64
2024/03/11 05:27:46;;;;;;;3.58;1.60;;;21.70;36.90;;;;;;5094758;28;20203;-64
2024/03/11 05:30:14;;;;;;;2.78;1.55;;;21.70;36.90;;;;;;5093362;28;20235;-64
2024/03/11 05:32:42;;;;;;;2.10;1.40;;;21.70;36.90;;;;;;5094481;28;20316;-64
2024/03/11 05:35:09;;;;;;;2.38;1.48;;;21.70;36.90;;;;;;5094831;28;20234;-64
2024/03/11 05:37:36;;;;;;;2.30;1.30;;;21.80;37.00;;;;;;5094216;28;20608;-64
2024/03/11 05:40:05;;;;;;;2.25;1.40;;;21.80;37.10;;;;;;5094171;28;20218;-64
2024/03/11 05:42:32;;;;;;;2.13;1.20;;;21.70;37.00;;;;;;5094722;28;20193;-64
2024/03/11 05:44:59;;;;;;;3.85;1.50;;;21.70;37.70;;;;;;5094464;28;20304;-64
2024/03/11 05:47:26;;;;;;;2.25;1.27;;;21.70;37.10;;;;;;5094403;28;20731;-64
2024/03/11 05:49:55;;;;;;;3.58;1.40;;;21.70;37.10;;;;;;5094663;28;20225;-64
2024/03/11 05:52:24;;;;;;;2.25;1.40;;;21.70;37.10;;;;;;5094378;28;20213;-64
2024/03/11 05:54:52;;;;;;;4.07;1.70;;;21.70;37.10;;;;;;5093775;28;20674;-64
2024/03/11 05:57:23;;;;;;;2.75;1.30;;;21.70;37.80;;;;;;5094481;28;20190;-64
2024/03/11 05:59:51;;;;;;;2.13;1.60;;;21.70;37.10;;;;;;5093870;28;20674;-64
2024/03/11 06:02:18;;;;;;;3.38;1.63;;;21.70;37.10;;;;;;5094390;28;20182;-64
2024/03/11 06:04:46;;;;;;;2.03;1.63;;;21.70;37.10;;;;;;5094401;28;20189;-64
2024/03/11 06:07:14;;;;;;;2.95;1.58;;;21.70;37.20;;;;;;5094077;28;20196;-64
2024/03/11 06:09:41;;;;;;;1.55;1.40;;;21.70;37.20;;;;;;5093522;28;20183;-64
2024/03/11 06:12:10;;;;;;;1.83;1.25;;;21.70;37.10;;;;;;5094157;28;20426;-64
2024/03/11 06:14:37;;;;;;;2.75;1.50;;;21.80;37.30;;;;;;5093840;28;20267;-64
2024/03/11 06:17:07;;;;;;;2.40;1.65;;;21.80;37.30;;;;;;5094097;28;20271;-64
2024/03/11 06:19:33;;;;;;;3.40;1.58;;;21.80;37.30;;;;;;5093593;28;20186;-64
2024/03/11 06:22:01;;;;;;;2.63;1.80;;;21.70;37.20;;;;;;5093751;28;20573;-64
2024/03/11 06:24:30;;;;;;;2.47;1.35;;;21.70;37.20;;;;;;5092938;28;20284;-64
2024/03/11 06:26:57;;;;;;;2.38;1.65;;;21.80;37.40;;;;;;5093929;28;20186;-64
2024/03/11 06:29:26;;;;;;;2.25;1.50;;;21.70;37.30;;;;;;5093601;28;20197;-64
2024/03/11 06:31:53;;;;;;;2.33;1.42;;;21.80;37.40;;;;;;5093257;28;20715;-64
2024/03/11 06:34:23;;;;;;;3.47;1.75;;;21.70;37.30;;;;;;5093514;28;20650;-64
2024/03/11 06:36:50;;;;;;;2.55;1.73;;;21.80;37.40;;;;;;5093281;28;20696;-64
2024/03/11 06:39:18;;;;;;;2.25;1.55;;;21.80;37.50;;;;;;5092963;28;20281;-64
2024/03/11 06:41:47;;;;;;;2.38;1.60;;;21.80;38.10;;;;;;5093423;28;20225;-64
2024/03/11 06:44:14;;;;;;;3.80;1.90;;;21.70;38.00;;;;;;5093302;28;20567;-64
2024/03/11 06:46:42;;;;;;;2.53;1.80;;;21.80;37.50;;;;;;5093372;28;20699;-64
2024/03/11 06:49:11;;;;;;;3.92;2.20;;;21.80;37.50;;;;;;5093394;28;20190;-64
2024/03/11 06:51:38;;;;;;;2.13;1.50;;;21.80;37.50;;;;;;5093353;28;20214;-64
2024/03/11 06:54:06;;;;;;;3.80;1.92;;;21.70;37.40;;;;;;5092387;28;20277;-64
2024/03/11 06:56:33;;;;;;;2.72;1.80;;;21.80;38.20;;;;;;5093233;28;20229;-63
2024/03/11 06:59:01;;;;;;;3.33;2.10;;;21.80;37.60;;;;;;5092845;28;20190;-64
2024/03/11 07:01:29;;;;;;;4.10;1.98;;;21.80;37.50;;;;;;5093360;28;20301;-64
2024/03/11 07:03:56;;;;;;;3.83;2.00;;;21.80;37.50;;;;;;5092871;28;20676;-64
2024/03/11 07:06:24;;;;;;;3.58;1.90;;;21.80;37.50;;;;;;5093054;28;20301;-64
2024/03/11 07:08:51;;;;;;;2.75;1.98;;;21.80;37.50;;;;;;5092076;28;20593;-64
2024/03/11 07:11:18;;;;;;;2.53;1.75;;;21.80;37.60;;;;;;5092934;28;20759;-64
2024/03/11 07:13:45;;;;;;;2.45;1.83;;;21.80;37.60;;;;;;5092760;28;20218;-64
2024/03/11 07:16:13;;;;;;;2.47;1.52;;;21.80;37.60;;;;;;5092741;28;20671;-64
2024/03/11 07:18:41;;;;;;;1.85;1.60;;;21.80;37.60;;;;;;5093360;28;20193;-64
2024/03/11 07:21:09;;;;;;;2.55;1.90;;;21.80;37.70;;;;;;5092191;28;20218;-64
2024/03/11 07:23:36;;;;;;;3.33;1.80;;;21.80;37.70;;;;;;5092156;28;20197;-64
2024/03/11 07:26:03;;;;;;;3.72;1.77;;;21.80;37.70;;;;;;5092646;28;20722;-63
2024/03/11 07:28:31;;;;;;;2.70;1.65;;;21.80;37.70;;;;;;5092611;28;20191;-64
2024/03/11 07:30:58;;;;;;;3.10;1.85;;;21.80;37.70;;;;;;5092540;28;20218;-64
2024/03/11 07:33:27;;;;;;;3.80;1.95;;;21.80;37.80;;;;;;5092647;28;20204;-64
2024/03/11 07:35:54;;;;;;;4.07;1.90;;;21.80;37.80;;;;;;5092374;28;20230;-64
2024/03/11 07:38:23;;;;;;;2.45;1.90;;;21.80;37.90;;;;;;5091921;28;20194;-64
2024/03/11 07:40:50;;;;;;;3.03;1.88;;;21.80;37.90;;;;;;5092354;28;20215;-64
2024/03/11 07:43:17;;;;;;;2.85;1.70;;;21.70;37.80;;;;;;5092014;28;20194;-64
2024/03/11 07:45:44;;;;;;;4.53;2.10;;;21.80;37.90;;;;;;5092435;28;20245;-64
2024/03/11 07:48:12;;;;;;;2.95;2.28;;;21.80;37.90;;;;;;5092183;28;20655;-64
2024/03/11 07:50:41;;;;;;;2.95;1.92;;;21.80;37.90;;;;;;5092189;28;20214;-64
2024/03/11 07:53:08;;;;;;;2.72;2.20;;;21.80;37.90;;;;;;5090938;28;20276;-64
2024/03/11 07:55:37;;;;;;;2.38;1.75;;;21.70;37.80;;;;;;5092219;28;20236;-63
2024/03/11 07:58:06;;;;;;;2.63;2.08;;;21.80;37.90;;;;;;5092165;28;20182;-64
2024/03/11 08:00:36;;;;;;;2.05;1.70;;;21.80;37.90;;;;;;5092409;28;20217;-64
2024/03/11 08:03:03;;;;;;;2.10;1.90;;;21.80;37.90;;;;;;5092309;28;20197;-63
2024/03/11 08:05:30;;;;;;;2.35;1.80;;;21.70;37.90;;;;;;5092027;28;20313;-64
2024/03/11 08:07:59;;;;;;;2.30;2.05;;;21.80;37.90;;;;;;5091523;28;20194;-64
2024/03/11 08:10:26;;;;;;;2.22;2.00;;;21.80;37.90;;;;;;5091829;28;20221;-64
2024/03/11 08:12:53;;;;;;;2.75;2.10;;;21.80;37.90;;;;;;5091993;28;20190;-64
2024/03/11 08:15:20;;;;;;;2.80;2.13;;;21.80;37.90;;;;;;5091905;28;20226;-64
2024/03/11 08:17:49;;;;;;;3.35;2.47;;;21.80;37.90;;;;;;5091790;28;20652;-64
2024/03/11 08:20:17;;;;;;;3.85;2.83;;;21.80;37.90;;;;;;5092005;28;20249;-64
2024/03/11 08:22:45;;;;;;;3.70;2.20;;;21.80;37.90;;;;;;5091432;28;20231;-64
2024/03/11 08:25:15;;;;;;;2.72;1.90;;;21.80;37.90;;;;;;5092073;28;20587;-64
2024/03/11 08:27:42;;;;;;;3.00;2.45;;;21.80;37.90;;;;;;5091573;28;20194;-64
2024/03/11 08:30:11;;;;;;;5.07;2.20;;;21.80;37.90;;;;;;5092116;28;20308;-64
2024/03/11 08:32:39;;;;;;;2.63;2.25;;;21.80;37.90;;;;;;5091805;28;20226;-64
2024/03/11 08:35:07;;;;;;;2.58;2.38;;;21.80;37.90;;;;;;5091534;28;20595;-64
2024/03/11 08:37:34;;;;;;;2.83;2.22;;;21.80;37.90;;;;;;5091332;28;20255;-64
2024/03/11 08:40:04;;;;;;;2.60;2.35;;;21.80;37.90;;;;;;5091659;28;20182;-63
2024/03/11 08:42:32;;;;;;;2.90;2.30;;;21.80;37.90;;;;;;5091698;28;20190;-64
2024/03/11 08:44:59;;;;;;;2.80;2.20;;;21.80;37.90;;;;;;5091919;28;20192;-64
2024/03/11 08:47:27;;;;;;;3.40;2.65;;;21.80;37.90;;;;;;5091940;28;20277;-64
2024/03/11 08:49:54;;;;;;;4.22;2.80;;;21.80;37.90;;;;;;5091351;28;20226;-64
2024/03/11 08:52:21;;;;;;;4.93;3.10;;;21.80;37.90;;;;;;5091095;28;20186;-64
2024/03/11 08:54:50;;;;;;;3.45;2.72;;;21.80;38.00;;;;;;5091791;28;20275;-64
2024/03/11 08:57:17;;;;;;;4.07;3.17;;;21.90;38.10;;;;;;5091208;28;20660;-64
2024/03/11 08:59:46;;;;;;;6.13;3.10;;;21.80;37.90;;;;;;5091747;28;20190;-64
2024/03/11 09:02:14;;;;;;;4.53;2.80;;;21.80;38.00;;;;;;5091796;28;20194;-64
2024/03/11 09:04:41;;;;;;;3.55;2.25;;;21.80;37.90;;;;;;5093159;28;20192;-64
2024/03/11 09:07:09;;;;;;;4.55;3.10;;;21.80;38.00;;;;;;5094853;28;20316;-64
2024/03/11 09:09:36;;;;;;;4.10;2.55;;;21.80;38.00;;;;;;5095414;28;20193;-64
2024/03/11 09:12:05;;;;;;;3.42;2.35;;;21.80;38.00;;;;;;5095359;28;20304;-64
2024/03/11 09:14:32;;;;;;;2.85;2.47;;;21.80;38.00;;;;;;5095292;28;20235;-64
2024/03/11 09:17:01;;;;;;;3.55;2.88;;;21.80;38.00;;;;;;5095432;28;20316;-64
2024/03/11 09:19:30;;;;;;;3.20;2.50;;;21.90;38.10;;;;;;5094980;28;20222;-63
2024/03/11 09:21:58;;;;;;;3.42;2.58;;;21.80;38.00;;;;;;5094573;28;20225;-64
2024/03/11 09:24:25;;;;;;;3.47;2.35;;;21.80;38.00;;;;;;5094855;28;20186;-64
2024/03/11 09:26:52;;;;;;;3.08;2.35;;;21.90;38.10;;;;;;5095118;28;20225;-64
2024/03/11 09:29:20;;;;;;;3.00;2.17;;;21.80;38.00;;;;;;5095026;28;20218;-64
2024/03/11 09:31:47;;;;;;;3.00;2.17;;;21.90;38.10;;;;;;5094437;28;20316;-64
2024/03/11 09:34:17;;;;;;;3.70;2.40;;;21.80;38.00;;;;;;5094947;28;20198;-65
2024/03/11 09:36:45;;;;;;;3.17;2.63;;;21.80;38.00;;;;;;5094325;28;20240;-64
2024/03/11 09:39:12;;;;;;;3.92;2.80;;;21.90;38.10;;;;;;5093665;28;20530;-64
2024/03/11 09:41:42;;;;;;;3.88;2.85;;;21.90;38.30;;;;;;5094449;28;20245;-65
2024/03/11 09:44:15;;;;;;;7.38;3.22;;;22.00;38.70;;;;;;5094779;28;20182;-64
2024/03/11 09:46:43;;;;;;;13.43;4.35;;;22.10;38.50;;;;;;5094882;28;20213;-65
2024/03/11 09:49:14;;;;;;;4.57;3.10;;;22.10;38.70;;;;;;5093832;28;20280;-64
2024/03/11 09:51:45;;;;;;;6.00;2.78;;;22.10;38.70;;;;;;5093903;28;20305;-64
2024/03/11 09:54:13;;;;;;;4.00;2.92;;;22.20;39.10;;;;;;5094540;28;20186;-64
2024/03/11 09:56:41;;;;;;;6.22;3.00;;;22.30;39.30;;;;;;5093896;28;20695;-65
2024/03/11 09:59:09;;;;;;;3.30;2.53;;;22.50;39.10;;;;;;5094149;28;20631;-65
2024/03/11 10:01:42;;;;;;;6.85;2.83;;;22.60;39.00;;;;;;5094510;28;20218;-65
2024/03/11 10:04:11;;;;;;;10.60;3.00;;;22.70;38.60;;;;;;5094145;28;20273;-65
2024/03/11 10:06:40;;;;;;;3.42;2.60;;;22.70;38.70;;;;;;5093756;28;20218;-65
2024/03/11 10:09:18;;;;;;;8.00;3.40;;;22.60;38.60;;;;;;5094592;28;20209;-58
2024/03/11 10:12:00;;;;;;;5.75;3.38;;;22.60;39.00;;;;;;5094150;28;20213;-58
2024/03/11 10:14:27;;;;;;;4.20;2.65;;;22.50;39.70;;;;;;5094163;28;20217;-59
2024/03/11 10:16:53;;;;;;;3.60;2.75;;;22.40;40.00;;;;;;5093182;28;20600;-59
2024/03/11 10:19:21;;;;;;;3.03;2.40;;;22.40;40.50;;;;;;5093797;28;20188;-62
2024/03/11 10:21:48;;;;;;;4.88;2.50;;;22.30;40.80;;;;;;5093012;28;20704;-62
2024/03/11 10:24:19;;;;;;;26.67;2.40;;;22.30;41.10;;;;;;5093997;28;20186;-59
2024/03/11 10:26:46;;;;;;;4.28;2.40;;;22.20;41.90;;;;;;5093958;28;20214;-59
2024/03/11 10:29:16;;;;;;;3.83;2.28;;;22.20;41.30;;;;;;5093928;28;20518;-58
2024/03/11 10:31:45;;;;;;;3.95;2.17;;;22.10;41.20;;;;;;5093391;28;20229;-59
2024/03/11 10:34:13;;;;;;;3.15;2.10;;;22.10;41.20;;;;;;5093727;28;20190;-59
2024/03/11 10:36:43;;;;;;;4.30;2.15;;;22.10;41.30;;;;;;5092896;28;20222;-59
2024/03/11 10:39:17;;;;;;;3.72;2.30;;;22.10;41.20;;;;;;5093290;28;20190;-59
2024/03/11 10:41:47;;;;;;;4.00;2.42;;;22.10;41.80;;;;;;5093569;28;20209;-59
2024/03/11 10:44:15;;;;;;;3.13;2.05;;;22.10;41.10;;;;;;5093689;28;20297;-61
2024/03/11 10:46:42;;;;;;;3.80;2.45;;;22.10;41.00;;;;;;5093339;28;20717;-59
2024/03/11 10:49:12;;;;;;;4.57;2.05;;;22.00;40.90;;;;;;5093195;28;20219;-59
2024/03/11 10:51:44;;;;;;;3.40;2.00;;;22.10;40.90;;;;;;5092612;28;20225;-62
2024/03/11 10:54:16;;;;;;;3.97;2.30;;;22.00;40.80;;;;;;5093429;28;20263;-59
2024/03/11 10:56:44;;;;;;;3.28;2.20;;;22.00;40.70;;;;;;5093217;28;20260;-59
2024/03/11 10:59:15;;;;;;;4.47;2.25;;;22.00;40.60;;;;;;5093328;28;20213;-61
2024/03/11 11:01:47;;;;;;;2.65;2.25;;;22.00;40.60;;;;;;5093274;28;20263;-59
2024/03/11 11:04:19;;;;;;;3.65;2.28;;;22.10;40.60;;;;;;5092725;28;20652;-59
2024/03/11 11:06:47;;;;;;;3.08;2.47;;;22.10;40.50;;;;;;5092568;28;20301;-59
2024/03/11 11:09:15;;;;;;;5.32;2.60;;;22.10;40.40;;;;;;5092670;28;20647;-60
2024/03/11 11:11:51;;;;;;;2.88;2.28;;;22.10;40.40;;;;;;5092769;28;20561;-59
2024/03/11 11:14:19;;;;;;;4.18;2.92;;;22.10;40.30;;;;;;5092978;28;20182;-59
2024/03/11 11:16:49;;;;;;;3.90;2.58;;;22.10;40.30;;;;;;5092472;28;20320;-59
2024/03/11 11:19:22;;;;;;;3.05;2.08;;;22.10;40.20;;;;;;5092897;28;20277;-59
2024/03/11 11:21:50;;;;;;;4.05;2.28;;;22.00;40.10;;;;;;5092302;28;20224;-61
2024/03/11 11:24:26;;;;;;;3.38;2.50;;;22.00;40.10;;;;;;5092388;28;20560;-59
2024/03/11 11:26:56;;;;;;;2.83;2.05;;;22.00;40.10;;;;;;5092479;28;20245;-59
2024/03/11 11:29:24;;;;;;;4.05;2.63;;;22.00;40.10;;;;;;5092241;28;20186;-60
2024/03/11 11:32:05;;;;;;;2.33;1.90;;;22.00;40.10;;;;;;5092139;28;20238;-59
2024/03/11 11:34:48;;;;;;;3.78;2.50;;;22.00;40.10;;;;;;5092683;28;20231;-59
2024/03/11 11:37:34;;;;;;;4.00;2.25;;;22.00;40.10;;;;;;5091729;28;20705;-59
2024/03/11 11:40:31;;;;;;;2.30;1.98;;;22.00;40.00;;;;;;5091992;28;20611;-59
2024/03/11 11:43:00;;;;;;;2.60;2.30;;;22.00;40.00;;;;;;5092577;28;20190;-59
2024/03/11 11:45:54;;;;;;;3.03;2.45;;;22.00;40.00;;;;;;5092472;28;20210;-59
2024/03/11 11:48:25;;;;;;;2.92;2.30;;;22.00;40.10;;;;;;5090079;28;20193;-62
2024/03/11 11:50:57;;;;;;;2.67;2.03;;;22.00;40.60;;;;;;5090500;28;20740;-59
2024/03/11 11:53:30;;;;;;;3.72;2.42;;;21.90;39.80;;;;;;5092012;28;20670;-59
2024/03/11 11:55:57;;;;;;;2.67;2.17;;;22.00;39.90;;;;;;5091721;28;20718;-59
2024/03/11 11:58:27;;;;;;;3.58;2.72;;;22.00;39.80;;;;;;5092111;28;20648;-59
2024/03/11 12:01:05;;;;;;;4.38;2.75;;;22.00;39.80;;;;;;5092397;28;20310;-61
2024/03/11 12:03:34;;;;;;;2.65;2.42;;;22.00;39.80;;;;;;5092256;28;20208;-59
2024/03/11 12:06:08;;;;;;;4.32;2.90;;;21.90;39.70;;;;;;5091309;28;20224;-59
2024/03/11 12:08:35;;;;;;;2.75;2.30;;;22.00;39.80;;;;;;5091838;28;20196;-59
2024/03/11 12:11:10;;;;;;;3.28;2.60;;;22.00;39.80;;;;;;5092272;28;20308;-59
2024/03/11 12:13:40;;;;;;;2.85;2.30;;;22.00;39.80;;;;;;5091961;28;20182;-60
2024/03/11 12:16:11;;;;;;;4.05;2.58;;;22.00;39.80;;;;;;5091628;28;20743;-61
2024/03/11 12:18:41;;;;;;;4.00;2.60;;;22.00;39.80;;;;;;5092228;28;20272;-59
2024/03/11 12:21:11;;;;;;;5.20;2.40;;;22.00;39.80;;;;;;5091504;28;20253;-59
2024/03/11 12:23:39;;;;;;;3.20;2.65;;;21.90;39.70;;;;;;5091927;28;20194;-59
2024/03/11 12:26:09;;;;;;;4.93;2.85;;;22.00;39.70;;;;;;5092186;28;20216;-59
2024/03/11 12:28:37;;;;;;;4.43;2.53;;;22.00;39.70;;;;;;5092370;28;20243;-59
2024/03/11 12:31:06;;;;;;;4.25;2.78;;;22.00;39.70;;;;;;5091592;28;20319;-58
2024/03/11 12:33:34;;;;;;;5.18;2.67;;;22.00;39.60;;;;;;5092051;28;20190;-59
2024/03/11 12:36:05;;;;;;;3.45;2.45;;;22.00;39.60;;;;;;5091445;28;20305;-59
2024/03/11 12:38:32;;;;;;;3.65;2.63;;;22.00;39.50;;;;;;5091713;28;20198;-59
2024/03/11 12:41:00;;;;;;;2.83;2.13;;;22.00;39.50;;;;;;5096013;28;20621;-59
2024/03/11 12:43:31;;;;;;;5.50;2.58;;;22.00;39.50;;;;;;5095907;28;20224;-59
2024/03/11 12:46:00;;;;;;;2.92;2.30;;;22.00;40.20;;;;;;5095294;28;20707;-59
2024/03/11 12:48:28;;;;;;;3.90;2.40;;;22.00;39.60;;;;;;5095835;28;20190;-61
2024/03/11 12:50:56;;;;;;;2.50;2.10;;;22.00;39.60;;;;;;5095122;28;20218;-59